sensor_id;sensor_type;location;lat;lon;timestamp;pressure;altitude;pressure_sealevel;temperature;humidity
27040;BME280;14589;51.578;7.306;2023-05-31T00:00:44;102022.31;;;12.54;80.60
27040;BME280;14589;51.578;7.306;2023-05-31T00:03:14;102026.19;;;12.51;81.22
27040;BME280;14589;51.578;7.306;2023-05-31T00:05:44;102010.84;;;12.50;80.91
27040;BME280;14589;51.578;7.306;2023-05-31T00:08:15;102021.97;;;12.47;81.33
27040;BME280;14589;51.578;7.306;2023-05-31T00:10:45;102018.91;;;12.41;81.36
27040;BME280;14589;51.578;7.306;2023-05-31T00:13:16;102015.59;;;12.37;81.92
27040;BME280;14589;51.578;7.306;2023-05-31T00:15:46;102021.16;;;12.36;81.32
27040;BME280;14589;51.578;7.306;2023-05-31T00:18:16;102015.00;;;12.34;81.95
27040;BME280;14589;51.578;7.306;2023-05-31T00:20:47;102025.25;;;12.30;82.45
27040;BME280;14589;51.578;7.306;2023-05-31T00:23:17;102015.50;;;12.28;82.20
27040;BME280;14589;51.578;7.306;2023-05-31T00:25:48;102017.34;;;12.27;82.88
27040;BME280;14589;51.578;7.306;2023-05-31T00:28:18;102016.59;;;12.25;83.16
27040;BME280;14589;51.578;7.306;2023-05-31T00:30:48;102023.03;;;12.24;82.73
27040;BME280;14589;51.578;7.306;2023-05-31T00:33:19;102015.16;;;12.21;82.40
27040;BME280;14589;51.578;7.306;2023-05-31T00:35:49;102007.50;;;12.15;82.78
27040;BME280;14589;51.578;7.306;2023-05-31T00:38:19;102007.75;;;12.12;83.20
27040;BME280;14589;51.578;7.306;2023-05-31T00:40:50;102017.75;;;12.11;83.00
27040;BME280;14589;51.578;7.306;2023-05-31T00:43:21;102012.69;;;12.07;83.55
27040;BME280;14589;51.578;7.306;2023-05-31T00:45:54;102012.94;;;12.04;84.13
27040;BME280;14589;51.578;7.306;2023-05-31T00:48:24;102015.06;;;12.00;83.80
27040;BME280;14589;51.578;7.306;2023-05-31T00:50:55;102016.16;;;11.98;84.26
27040;BME280;14589;51.578;7.306;2023-05-31T00:53:26;102012.25;;;11.91;84.33
27040;BME280;14589;51.578;7.306;2023-05-31T00:55:58;102016.81;;;11.90;84.87
27040;BME280;14589;51.578;7.306;2023-05-31T00:58:29;102016.66;;;11.92;84.67
27040;BME280;14589;51.578;7.306;2023-05-31T01:01:01;102015.47;;;11.85;84.70
27040;BME280;14589;51.578;7.306;2023-05-31T01:03:33;102021.91;;;11.84;85.50
27040;BME280;14589;51.578;7.306;2023-05-31T01:06:04;102018.19;;;11.85;85.62
27040;BME280;14589;51.578;7.306;2023-05-31T01:08:35;102013.97;;;11.81;85.47
27040;BME280;14589;51.578;7.306;2023-05-31T01:11:15;102023.38;;;11.77;85.70
27040;BME280;14589;51.578;7.306;2023-05-31T01:19:52;102010.50;;;11.67;85.78
27040;BME280;14589;51.578;7.306;2023-05-31T01:22:45;102023.59;;;11.62;86.26
27040;BME280;14589;51.578;7.306;2023-05-31T01:28:25;102019.50;;;11.57;86.37
27040;BME280;14589;51.578;7.306;2023-05-31T01:31:02;102016.19;;;11.53;86.82
27040;BME280;14589;51.578;7.306;2023-05-31T01:33:33;102018.91;;;11.53;86.72
27040;BME280;14589;51.578;7.306;2023-05-31T01:36:04;102015.69;;;11.48;86.79
27040;BME280;14589;51.578;7.306;2023-05-31T01:38:35;102018.66;;;11.45;87.47
27040;BME280;14589;51.578;7.306;2023-05-31T01:41:06;102012.47;;;11.43;86.79
27040;BME280;14589;51.578;7.306;2023-05-31T01:43:41;102022.47;;;11.43;88.17
27040;BME280;14589;51.578;7.306;2023-05-31T01:46:14;102030.13;;;11.38;87.87
27040;BME280;14589;51.578;7.306;2023-05-31T01:48:46;102025.66;;;11.36;87.16
27040;BME280;14589;51.578;7.306;2023-05-31T01:51:17;102025.81;;;11.35;88.07
27040;BME280;14589;51.578;7.306;2023-05-31T01:53:48;102021.38;;;11.34;87.95
27040;BME280;14589;51.578;7.306;2023-05-31T01:56:20;102030.38;;;11.34;88.36
27040;BME280;14589;51.578;7.306;2023-05-31T01:58:53;102032.47;;;11.31;88.20
27040;BME280;14589;51.578;7.306;2023-05-31T02:01:25;102027.28;;;11.28;88.39
27040;BME280;14589;51.578;7.306;2023-05-31T02:03:55;102032.06;;;11.24;88.99
27040;BME280;14589;51.578;7.306;2023-05-31T02:06:26;102023.31;;;11.21;88.83
27040;BME280;14589;51.578;7.306;2023-05-31T02:08:59;102027.28;;;11.17;89.14
27040;BME280;14589;51.578;7.306;2023-05-31T02:11:31;102031.84;;;11.16;89.25
27040;BME280;14589;51.578;7.306;2023-05-31T02:14:02;102034.78;;;11.13;89.64
27040;BME280;14589;51.578;7.306;2023-05-31T02:16:32;102037.50;;;11.13;90.00
27040;BME280;14589;51.578;7.306;2023-05-31T02:19:03;102027.13;;;11.07;89.80
27040;BME280;14589;51.578;7.306;2023-05-31T02:21:34;102027.97;;;11.08;90.01
27040;BME280;14589;51.578;7.306;2023-05-31T02:24:07;102023.78;;;11.04;90.16
27040;BME280;14589;51.578;7.306;2023-05-31T02:26:38;102028.47;;;11.02;90.18
27040;BME280;14589;51.578;7.306;2023-05-31T02:29:08;102035.25;;;10.96;90.51
27040;BME280;14589;51.578;7.306;2023-05-31T02:31:39;102037.94;;;10.96;90.71
27040;BME280;14589;51.578;7.306;2023-05-31T02:34:10;102029.16;;;10.92;90.92
27040;BME280;14589;51.578;7.306;2023-05-31T02:36:40;102036.31;;;10.93;90.59
27040;BME280;14589;51.578;7.306;2023-05-31T02:39:11;102031.16;;;10.90;90.89
27040;BME280;14589;51.578;7.306;2023-05-31T02:41:41;102033.00;;;10.90;91.17
27040;BME280;14589;51.578;7.306;2023-05-31T02:44:12;102030.75;;;10.84;91.53
27040;BME280;14589;51.578;7.306;2023-05-31T02:46:43;102033.47;;;10.84;91.63
27040;BME280;14589;51.578;7.306;2023-05-31T02:49:15;102024.84;;;10.79;91.38
27040;BME280;14589;51.578;7.306;2023-05-31T02:51:46;102027.66;;;10.77;91.88
27040;BME280;14589;51.578;7.306;2023-05-31T02:54:35;102028.63;;;10.76;92.57
27040;BME280;14589;51.578;7.306;2023-05-31T02:57:07;102028.03;;;10.73;91.73
27040;BME280;14589;51.578;7.306;2023-05-31T02:59:43;102031.59;;;10.73;91.57
27040;BME280;14589;51.578;7.306;2023-05-31T03:02:18;102023.94;;;10.67;92.26
27040;BME280;14589;51.578;7.306;2023-05-31T03:04:56;102021.44;;;10.64;91.92
27040;BME280;14589;51.578;7.306;2023-05-31T03:07:27;102011.44;;;10.65;92.23
27040;BME280;14589;51.578;7.306;2023-05-31T03:09:58;102015.41;;;10.61;91.77
27040;BME280;14589;51.578;7.306;2023-05-31T03:12:28;102015.50;;;10.59;91.91
27040;BME280;14589;51.578;7.306;2023-05-31T03:14:58;102017.47;;;10.57;91.84
27040;BME280;14589;51.578;7.306;2023-05-31T03:17:29;102012.28;;;10.54;92.15
27040;BME280;14589;51.578;7.306;2023-05-31T03:20:00;102003.75;;;10.47;91.23
27040;BME280;14589;51.578;7.306;2023-05-31T03:22:31;102016.56;;;10.45;91.71
27040;BME280;14589;51.578;7.306;2023-05-31T03:25:02;102016.03;;;10.40;91.04
27040;BME280;14589;51.578;7.306;2023-05-31T03:27:33;102017.88;;;10.40;91.21
27040;BME280;14589;51.578;7.306;2023-05-31T03:30:04;102027.25;;;10.36;91.34
27040;BME280;14589;51.578;7.306;2023-05-31T03:32:40;102024.53;;;10.36;91.50
27040;BME280;14589;51.578;7.306;2023-05-31T03:35:11;102027.25;;;10.36;91.25
27040;BME280;14589;51.578;7.306;2023-05-31T03:37:41;102025.50;;;10.35;91.23
27040;BME280;14589;51.578;7.306;2023-05-31T03:40:15;102013.53;;;10.37;92.15
27040;BME280;14589;51.578;7.306;2023-05-31T03:42:46;102029.69;;;10.39;92.38
27040;BME280;14589;51.578;7.306;2023-05-31T03:45:17;102024.28;;;10.39;92.65
27040;BME280;14589;51.578;7.306;2023-05-31T03:47:48;102019.63;;;10.41;92.62
27040;BME280;14589;51.578;7.306;2023-05-31T03:50:19;102024.94;;;10.42;92.98
27040;BME280;14589;51.578;7.306;2023-05-31T03:52:50;102022.09;;;10.44;93.36
27040;BME280;14589;51.578;7.306;2023-05-31T03:55:20;102017.53;;;10.44;93.20
27040;BME280;14589;51.578;7.306;2023-05-31T03:57:52;102010.25;;;10.45;93.34
27040;BME280;14589;51.578;7.306;2023-05-31T04:00:23;102012.00;;;10.46;93.02
27040;BME280;14589;51.578;7.306;2023-05-31T04:02:56;102012.00;;;10.46;93.32
27040;BME280;14589;51.578;7.306;2023-05-31T04:05:27;102020.03;;;10.47;93.21
27040;BME280;14589;51.578;7.306;2023-05-31T04:07:57;102015.47;;;10.48;93.20
27040;BME280;14589;51.578;7.306;2023-05-31T04:10:29;102018.91;;;10.50;93.40
27040;BME280;14589;51.578;7.306;2023-05-31T04:13:00;102021.41;;;10.53;94.14
27040;BME280;14589;51.578;7.306;2023-05-31T04:15:31;102015.97;;;10.53;93.66
27040;BME280;14589;51.578;7.306;2023-05-31T04:18:05;102005.41;;;10.61;93.77
27040;BME280;14589;51.578;7.306;2023-05-31T04:20:36;102020.47;;;10.65;93.73
27040;BME280;14589;51.578;7.306;2023-05-31T04:23:07;102017.38;;;10.70;93.49
27040;BME280;14589;51.578;7.306;2023-05-31T04:25:37;102021.47;;;10.75;93.73
27040;BME280;14589;51.578;7.306;2023-05-31T04:28:08;102019.41;;;10.79;94.04
27040;BME280;14589;51.578;7.306;2023-05-31T04:30:38;102015.97;;;10.88;93.75
27040;BME280;14589;51.578;7.306;2023-05-31T04:33:09;102024.28;;;10.98;93.33
27040;BME280;14589;51.578;7.306;2023-05-31T04:35:40;102017.13;;;11.08;92.81
27040;BME280;14589;51.578;7.306;2023-05-31T04:38:10;102018.13;;;11.18;92.33
27040;BME280;14589;51.578;7.306;2023-05-31T04:40:44;102020.63;;;11.32;92.45
27040;BME280;14589;51.578;7.306;2023-05-31T04:43:14;102018.16;;;11.40;91.39
27040;BME280;14589;51.578;7.306;2023-05-31T04:45:45;102015.81;;;11.47;91.17
27040;BME280;14589;51.578;7.306;2023-05-31T04:48:16;102011.00;;;11.61;90.89
27040;BME280;14589;51.578;7.306;2023-05-31T04:50:46;102019.28;;;11.71;90.22
27040;BME280;14589;51.578;7.306;2023-05-31T04:53:18;102024.72;;;11.82;90.48
27040;BME280;14589;51.578;7.306;2023-05-31T04:55:48;102024.81;;;11.92;89.87
27040;BME280;14589;51.578;7.306;2023-05-31T04:58:19;102024.94;;;12.01;89.09
27040;BME280;14589;51.578;7.306;2023-05-31T05:00:50;102028.50;;;12.13;88.71
27040;BME280;14589;51.578;7.306;2023-05-31T05:03:27;102026.91;;;12.22;87.92
27040;BME280;14589;51.578;7.306;2023-05-31T05:06:15;102038.84;;;12.30;87.98
27040;BME280;14589;51.578;7.306;2023-05-31T05:08:48;102031.00;;;12.48;88.14
27040;BME280;14589;51.578;7.306;2023-05-31T05:11:23;102035.78;;;12.55;86.39
27040;BME280;14589;51.578;7.306;2023-05-31T05:13:55;102028.09;;;12.61;86.67
27040;BME280;14589;51.578;7.306;2023-05-31T05:16:28;102025.59;;;12.69;86.43
27040;BME280;14589;51.578;7.306;2023-05-31T05:18:58;102025.09;;;12.75;86.24
27040;BME280;14589;51.578;7.306;2023-05-31T05:21:32;102024.56;;;12.81;85.29
27040;BME280;14589;51.578;7.306;2023-05-31T05:24:03;102028.94;;;12.93;84.93
27040;BME280;14589;51.578;7.306;2023-05-31T05:26:33;102030.16;;;13.00;84.75
27040;BME280;14589;51.578;7.306;2023-05-31T05:29:05;102025.63;;;13.10;84.85
27040;BME280;14589;51.578;7.306;2023-05-31T05:31:36;102024.59;;;13.22;84.39
27040;BME280;14589;51.578;7.306;2023-05-31T05:34:09;102032.53;;;13.35;84.19
27040;BME280;14589;51.578;7.306;2023-05-31T05:36:40;102030.13;;;13.42;82.82
27040;BME280;14589;51.578;7.306;2023-05-31T05:39:10;102034.78;;;13.51;82.56
27040;BME280;14589;51.578;7.306;2023-05-31T05:41:41;102030.44;;;13.69;82.83
27040;BME280;14589;51.578;7.306;2023-05-31T05:44:11;102039.25;;;13.82;82.47
27040;BME280;14589;51.578;7.306;2023-05-31T05:46:42;102030.66;;;13.96;82.00
27040;BME280;14589;51.578;7.306;2023-05-31T05:49:13;102033.00;;;14.10;80.97
27040;BME280;14589;51.578;7.306;2023-05-31T05:51:46;102023.88;;;14.31;80.69
27040;BME280;14589;51.578;7.306;2023-05-31T05:54:17;102018.16;;;14.53;78.79
27040;BME280;14589;51.578;7.306;2023-05-31T05:56:47;102032.69;;;14.73;78.22
27040;BME280;14589;51.578;7.306;2023-05-31T05:59:18;102035.56;;;14.90;76.79
27040;BME280;14589;51.578;7.306;2023-05-31T06:02:11;102039.09;;;15.20;76.01
27040;BME280;14589;51.578;7.306;2023-05-31T06:04:42;102030.03;;;15.29;75.89
27040;BME280;14589;51.578;7.306;2023-05-31T06:07:12;102039.09;;;15.29;75.35
27040;BME280;14589;51.578;7.306;2023-05-31T06:09:43;102040.66;;;15.42;75.66
27040;BME280;14589;51.578;7.306;2023-05-31T06:12:13;102034.91;;;15.35;75.11
27040;BME280;14589;51.578;7.306;2023-05-31T06:14:45;102039.47;;;15.44;73.99
27040;BME280;14589;51.578;7.306;2023-05-31T06:17:16;102042.97;;;15.27;74.38
27040;BME280;14589;51.578;7.306;2023-05-31T06:19:47;102040.38;;;15.35;74.78
27040;BME280;14589;51.578;7.306;2023-05-31T06:22:17;102037.34;;;15.38;74.49
27040;BME280;14589;51.578;7.306;2023-05-31T06:24:48;102047.66;;;15.44;74.07
27040;BME280;14589;51.578;7.306;2023-05-31T06:27:18;102040.50;;;15.53;74.24
27040;BME280;14589;51.578;7.306;2023-05-31T06:29:49;102045.63;;;15.65;73.62
27040;BME280;14589;51.578;7.306;2023-05-31T06:32:40;102043.38;;;15.61;73.79
27040;BME280;14589;51.578;7.306;2023-05-31T06:35:11;102043.13;;;15.82;73.39
27040;BME280;14589;51.578;7.306;2023-05-31T06:37:43;102034.69;;;15.93;71.99
27040;BME280;14589;51.578;7.306;2023-05-31T06:40:14;102046.56;;;16.11;72.76
27040;BME280;14589;51.578;7.306;2023-05-31T06:42:46;102041.34;;;16.17;71.99
27040;BME280;14589;51.578;7.306;2023-05-31T06:45:19;102043.56;;;16.32;71.34
27040;BME280;14589;51.578;7.306;2023-05-31T06:47:53;102039.75;;;16.42;70.31
27040;BME280;14589;51.578;7.306;2023-05-31T06:50:26;102039.34;;;16.65;70.40
27040;BME280;14589;51.578;7.306;2023-05-31T06:53:16;102041.59;;;16.87;69.69
27040;BME280;14589;51.578;7.306;2023-05-31T06:55:50;102028.91;;;16.86;68.35
27040;BME280;14589;51.578;7.306;2023-05-31T06:58:29;102029.28;;;17.09;68.45
27040;BME280;14589;51.578;7.306;2023-05-31T07:01:00;102033.66;;;17.19;67.31
27040;BME280;14589;51.578;7.306;2023-05-31T07:03:31;102023.50;;;17.37;67.75
27040;BME280;14589;51.578;7.306;2023-05-31T07:06:03;102028.16;;;17.45;66.90
27040;BME280;14589;51.578;7.306;2023-05-31T07:08:34;102025.31;;;17.81;66.85
27040;BME280;14589;51.578;7.306;2023-05-31T07:11:24;102032.13;;;18.10;65.46
27040;BME280;14589;51.578;7.306;2023-05-31T07:13:55;102028.91;;;18.23;64.86
27040;BME280;14589;51.578;7.306;2023-05-31T07:16:30;102022.44;;;18.32;63.75
27040;BME280;14589;51.578;7.306;2023-05-31T07:19:02;102027.06;;;18.32;62.99
27040;BME280;14589;51.578;7.306;2023-05-31T07:21:33;102025.03;;;18.50;62.99
27040;BME280;14589;51.578;7.306;2023-05-31T07:24:04;102014.63;;;18.86;61.75
27040;BME280;14589;51.578;7.306;2023-05-31T07:26:34;102007.75;;;18.82;62.04
27040;BME280;14589;51.578;7.306;2023-05-31T07:29:05;102017.56;;;19.01;62.31
27040;BME280;14589;51.578;7.306;2023-05-31T07:31:35;102023.03;;;19.25;60.31
27040;BME280;14589;51.578;7.306;2023-05-31T07:34:05;102015.78;;;19.32;59.42
27040;BME280;14589;51.578;7.306;2023-05-31T07:36:36;102014.25;;;19.54;59.30
27040;BME280;14589;51.578;7.306;2023-05-31T07:39:07;102015.56;;;19.74;58.70
27040;BME280;14589;51.578;7.306;2023-05-31T07:41:40;102006.84;;;19.62;59.42
27040;BME280;14589;51.578;7.306;2023-05-31T07:44:11;102002.22;;;19.94;57.94
27040;BME280;14589;51.578;7.306;2023-05-31T07:46:41;102006.63;;;20.11;56.74
27040;BME280;14589;51.578;7.306;2023-05-31T07:49:11;101999.13;;;20.36;56.67
27040;BME280;14589;51.578;7.306;2023-05-31T07:51:42;102001.63;;;20.68;56.14
27040;BME280;14589;51.578;7.306;2023-05-31T07:54:13;102002.09;;;20.80;53.48
27040;BME280;14589;51.578;7.306;2023-05-31T07:56:43;102000.41;;;20.71;52.35
27040;BME280;14589;51.578;7.306;2023-05-31T07:59:14;102000.66;;;20.84;51.96
27040;BME280;14589;51.578;7.306;2023-05-31T08:01:44;102009.34;;;20.95;50.38
27040;BME280;14589;51.578;7.306;2023-05-31T08:04:16;102004.69;;;20.96;50.44
27040;BME280;14589;51.578;7.306;2023-05-31T08:06:47;101998.38;;;21.10;50.59
27040;BME280;14589;51.578;7.306;2023-05-31T08:09:17;102002.59;;;21.35;50.21
27040;BME280;14589;51.578;7.306;2023-05-31T08:11:47;101997.28;;;21.34;48.56
27040;BME280;14589;51.578;7.306;2023-05-31T08:14:18;101998.16;;;21.49;48.88
27040;BME280;14589;51.578;7.306;2023-05-31T08:16:48;101984.81;;;21.38;48.62
27040;BME280;14589;51.578;7.306;2023-05-31T08:19:19;101995.78;;;21.61;48.38
27040;BME280;14589;51.578;7.306;2023-05-31T08:21:49;101990.91;;;21.92;47.57
27040;BME280;14589;51.578;7.306;2023-05-31T08:24:22;101984.78;;;22.26;46.71
27040;BME280;14589;51.578;7.306;2023-05-31T08:26:52;101989.75;;;22.16;45.32
27040;BME280;14589;51.578;7.306;2023-05-31T08:29:22;101977.13;;;22.28;43.88
27040;BME280;14589;51.578;7.306;2023-05-31T08:31:53;101989.28;;;22.12;43.93
27040;BME280;14589;51.578;7.306;2023-05-31T08:34:23;101974.72;;;22.04;44.36
27040;BME280;14589;51.578;7.306;2023-05-31T08:36:53;101972.63;;;22.42;44.32
27040;BME280;14589;51.578;7.306;2023-05-31T08:39:25;101982.69;;;22.49;43.93
27040;BME280;14589;51.578;7.306;2023-05-31T08:42:00;101975.44;;;22.48;43.18
27040;BME280;14589;51.578;7.306;2023-05-31T08:44:32;101964.88;;;22.52;42.58
27040;BME280;14589;51.578;7.306;2023-05-31T08:47:21;101973.63;;;22.98;42.09
27040;BME280;14589;51.578;7.306;2023-05-31T08:49:54;101975.19;;;23.35;42.59
27040;BME280;14589;51.578;7.306;2023-05-31T08:52:25;101964.72;;;23.58;42.01
27040;BME280;14589;51.578;7.306;2023-05-31T08:54:57;101966.16;;;23.82;41.54
27040;BME280;14589;51.578;7.306;2023-05-31T08:57:30;101964.25;;;23.96;40.14
27040;BME280;14589;51.578;7.306;2023-05-31T09:00:02;101958.44;;;24.18;40.32
27040;BME280;14589;51.578;7.306;2023-05-31T09:02:41;101961.56;;;24.09;40.12
27040;BME280;14589;51.578;7.306;2023-05-31T09:05:12;101962.97;;;24.39;40.32
27040;BME280;14589;51.578;7.306;2023-05-31T09:07:43;101960.00;;;24.54;38.12
27040;BME280;14589;51.578;7.306;2023-05-31T09:10:14;101966.19;;;24.69;37.86
27040;BME280;14589;51.578;7.306;2023-05-31T09:12:46;101954.00;;;24.31;37.92
27040;BME280;14589;51.578;7.306;2023-05-31T09:15:17;101950.22;;;24.78;37.73
27040;BME280;14589;51.578;7.306;2023-05-31T09:17:47;101960.31;;;24.92;38.66
27040;BME280;14589;51.578;7.306;2023-05-31T09:20:18;101958.97;;;25.34;37.17
27040;BME280;14589;51.578;7.306;2023-05-31T09:22:49;101957.72;;;25.10;37.28
27040;BME280;14589;51.578;7.306;2023-05-31T09:25:19;101953.44;;;25.34;37.89
27040;BME280;14589;51.578;7.306;2023-05-31T09:27:50;101954.09;;;25.29;36.04
27040;BME280;14589;51.578;7.306;2023-05-31T09:30:20;101942.34;;;24.94;36.69
27040;BME280;14589;51.578;7.306;2023-05-31T09:32:54;101936.09;;;25.38;36.57
27040;BME280;14589;51.578;7.306;2023-05-31T09:35:24;101929.94;;;25.30;34.59
27040;BME280;14589;51.578;7.306;2023-05-31T09:38:03;101938.16;;;25.76;33.76
27040;BME280;14589;51.578;7.306;2023-05-31T09:40:34;101931.59;;;25.64;33.53
27040;BME280;14589;51.578;7.306;2023-05-31T09:43:04;101930.84;;;25.88;34.00
27040;BME280;14589;51.578;7.306;2023-05-31T09:45:34;101926.91;;;26.09;33.02
27040;BME280;14589;51.578;7.306;2023-05-31T09:48:10;101925.03;;;26.41;32.82
27040;BME280;14589;51.578;7.306;2023-05-31T09:50:41;101925.81;;;26.48;30.55
27040;BME280;14589;51.578;7.306;2023-05-31T09:53:16;101922.16;;;26.16;31.58
27040;BME280;14589;51.578;7.306;2023-05-31T09:55:48;101917.72;;;26.46;31.62
27040;BME280;14589;51.578;7.306;2023-05-31T09:58:28;101926.13;;;26.40;31.38
27040;BME280;14589;51.578;7.306;2023-05-31T10:01:00;101916.53;;;26.61;30.50
27040;BME280;14589;51.578;7.306;2023-05-31T10:03:32;101914.59;;;26.92;30.92
27040;BME280;14589;51.578;7.306;2023-05-31T10:06:03;101911.44;;;26.82;29.52
27040;BME280;14589;51.578;7.306;2023-05-31T10:08:34;101908.91;;;27.06;29.59
27040;BME280;14589;51.578;7.306;2023-05-31T10:11:05;101905.44;;;27.28;25.80
27040;BME280;14589;51.578;7.306;2023-05-31T10:13:37;101899.03;;;27.28;26.83
27040;BME280;14589;51.578;7.306;2023-05-31T10:16:08;101905.84;;;27.32;27.09
27040;BME280;14589;51.578;7.306;2023-05-31T10:18:44;101897.13;;;27.04;26.95
27040;BME280;14589;51.578;7.306;2023-05-31T10:21:18;101885.38;;;27.02;27.29
27040;BME280;14589;51.578;7.306;2023-05-31T10:24:03;101892.47;;;26.97;27.37
27040;BME280;14589;51.578;7.306;2023-05-31T10:29:23;101879.91;;;27.50;27.12
27040;BME280;14589;51.578;7.306;2023-05-31T10:32:03;101879.88;;;27.56;27.81
27040;BME280;14589;51.578;7.306;2023-05-31T10:34:35;101878.94;;;27.62;26.30
27040;BME280;14589;51.578;7.306;2023-05-31T10:37:06;101877.34;;;27.48;26.83
27040;BME280;14589;51.578;7.306;2023-05-31T10:51:00;101862.00;;;27.94;26.54
27040;BME280;14589;51.578;7.306;2023-05-31T10:53:35;101851.53;;;28.49;25.56
27040;BME280;14589;51.578;7.306;2023-05-31T10:56:07;101857.66;;;28.28;25.33
27040;BME280;14589;51.578;7.306;2023-05-31T10:58:43;101849.81;;;28.06;25.63
27040;BME280;14589;51.578;7.306;2023-05-31T11:01:17;101855.53;;;28.53;24.89
27040;BME280;14589;51.578;7.306;2023-05-31T11:03:53;101845.03;;;29.02;24.36
27040;BME280;14589;51.578;7.306;2023-05-31T11:06:26;101850.22;;;29.45;24.77
27040;BME280;14589;51.578;7.306;2023-05-31T11:09:01;101853.03;;;29.21;24.42
27040;BME280;14589;51.578;7.306;2023-05-31T11:19:36;101840.25;;;28.67;25.00
27040;BME280;14589;51.578;7.306;2023-05-31T11:22:08;101841.22;;;28.49;24.58
27040;BME280;14589;51.578;7.306;2023-05-31T11:24:39;101830.69;;;28.63;24.58
27040;BME280;14589;51.578;7.306;2023-05-31T11:27:37;101834.56;;;29.09;24.37
27040;BME280;14589;51.578;7.306;2023-05-31T11:30:17;101837.81;;;28.71;24.48
27040;BME280;14589;51.578;7.306;2023-05-31T11:35:18;101829.72;;;29.16;24.83
27040;BME280;14589;51.578;7.306;2023-05-31T11:37:48;101827.41;;;28.78;25.23
27040;BME280;14589;51.578;7.306;2023-05-31T11:40:20;101827.03;;;29.72;24.60
27040;BME280;14589;51.578;7.306;2023-05-31T11:42:51;101828.09;;;29.55;23.55
27040;BME280;14589;51.578;7.306;2023-05-31T11:45:25;101818.69;;;29.61;24.63
27040;BME280;14589;51.578;7.306;2023-05-31T11:48:17;101830.13;;;29.88;24.59
27040;BME280;14589;51.578;7.306;2023-05-31T11:50:53;101814.94;;;30.12;23.58
27040;BME280;14589;51.578;7.306;2023-05-31T11:53:26;101817.38;;;29.92;23.69
27040;BME280;14589;51.578;7.306;2023-05-31T11:55:57;101815.91;;;31.01;23.42
27040;BME280;14589;51.578;7.306;2023-05-31T11:58:29;101818.09;;;30.15;23.90
27040;BME280;14589;51.578;7.306;2023-05-31T12:00:59;101805.03;;;29.36;24.21
27040;BME280;14589;51.578;7.306;2023-05-31T12:03:30;101794.38;;;30.18;23.92
27040;BME280;14589;51.578;7.306;2023-05-31T12:06:01;101794.47;;;30.40;23.18
27040;BME280;14589;51.578;7.306;2023-05-31T12:08:32;101795.94;;;29.97;23.58
27040;BME280;14589;51.578;7.306;2023-05-31T12:11:03;101798.19;;;30.45;23.11
27040;BME280;14589;51.578;7.306;2023-05-31T12:13:34;101793.16;;;30.31;23.68
27040;BME280;14589;51.578;7.306;2023-05-31T12:16:04;101778.16;;;30.70;22.82
27040;BME280;14589;51.578;7.306;2023-05-31T12:18:35;101768.69;;;31.10;22.77
27040;BME280;14589;51.578;7.306;2023-05-31T12:21:08;101776.13;;;31.21;22.48
27040;BME280;14589;51.578;7.306;2023-05-31T12:23:56;101760.94;;;30.45;22.52
27040;BME280;14589;51.578;7.306;2023-05-31T12:26:27;101779.31;;;31.08;22.46
27040;BME280;14589;51.578;7.306;2023-05-31T12:28:57;101775.03;;;30.67;23.22
27040;BME280;14589;51.578;7.306;2023-05-31T12:31:33;101767.09;;;30.80;23.05
27040;BME280;14589;51.578;7.306;2023-05-31T12:34:08;101760.56;;;30.91;22.99
27040;BME280;14589;51.578;7.306;2023-05-31T12:39:19;101748.03;;;30.44;22.56
27040;BME280;14589;51.578;7.306;2023-05-31T12:41:50;101752.91;;;30.87;22.66
27040;BME280;14589;51.578;7.306;2023-05-31T12:44:22;101751.25;;;30.86;22.79
27040;BME280;14589;51.578;7.306;2023-05-31T12:47:00;101748.69;;;30.84;22.48
27040;BME280;14589;51.578;7.306;2023-05-31T12:49:32;101733.34;;;31.09;22.44
27040;BME280;14589;51.578;7.306;2023-05-31T12:52:07;101742.88;;;31.08;23.01
27040;BME280;14589;51.578;7.306;2023-05-31T12:54:39;101744.13;;;30.62;22.99
27040;BME280;14589;51.578;7.306;2023-05-31T12:57:10;101739.03;;;30.75;22.67
27040;BME280;14589;51.578;7.306;2023-05-31T12:59:41;101733.16;;;30.99;22.71
27040;BME280;14589;51.578;7.306;2023-05-31T13:02:12;101747.97;;;30.05;23.64
27040;BME280;14589;51.578;7.306;2023-05-31T13:04:42;101744.66;;;30.08;23.43
27040;BME280;14589;51.578;7.306;2023-05-31T13:07:13;101730.75;;;30.30;23.63
27040;BME280;14589;51.578;7.306;2023-05-31T13:09:43;101722.75;;;30.39;23.46
27040;BME280;14589;51.578;7.306;2023-05-31T13:12:14;101727.78;;;31.35;22.57
27040;BME280;14589;51.578;7.306;2023-05-31T13:14:45;101730.75;;;31.72;22.33
27040;BME280;14589;51.578;7.306;2023-05-31T13:17:15;101718.25;;;31.10;23.14
27040;BME280;14589;51.578;7.306;2023-05-31T13:19:46;101720.41;;;31.51;22.68
27040;BME280;14589;51.578;7.306;2023-05-31T13:22:16;101719.84;;;32.03;21.88
27040;BME280;14589;51.578;7.306;2023-05-31T13:24:46;101727.97;;;32.04;22.90
27040;BME280;14589;51.578;7.306;2023-05-31T13:27:17;101729.66;;;32.05;21.85
27040;BME280;14589;51.578;7.306;2023-05-31T13:29:48;101711.69;;;31.48;22.49
27040;BME280;14589;51.578;7.306;2023-05-31T13:32:18;101717.75;;;31.93;22.34
27040;BME280;14589;51.578;7.306;2023-05-31T13:34:49;101713.03;;;32.68;21.92
27040;BME280;14589;51.578;7.306;2023-05-31T13:37:19;101708.03;;;32.75;21.71
27040;BME280;14589;51.578;7.306;2023-05-31T13:39:51;101712.16;;;31.66;22.32
27040;BME280;14589;51.578;7.306;2023-05-31T13:42:21;101697.66;;;31.74;22.59
27040;BME280;14589;51.578;7.306;2023-05-31T13:44:52;101701.63;;;32.42;21.14
27040;BME280;14589;51.578;7.306;2023-05-31T13:47:22;101708.44;;;32.15;21.21
27040;BME280;14589;51.578;7.306;2023-05-31T13:49:52;101692.31;;;31.46;21.82
27040;BME280;14589;51.578;7.306;2023-05-31T13:52:23;101696.47;;;30.40;23.07